Time;durP1;ratioP1;P1;durP2;ratioP2;P2;SDS_P1;SDS_P2;PMS_P1;PMS_P2;Temp;Humidity;BMP_temperature;BMP_pressure;BME280_temperature;BME280_humidity;BME280_pressure;Samples;Min_cycle;Max_cycle;Signal;HPM_P1;HPM_P2
2021/04/21 00:02:40;;;;;;;12.20;8.18;;;;;;;9.21;45.97;100375.75;10308973;28;20242;-74
2021/04/21 00:07:43;;;;;;;13.63;9.07;;;;;;;9.15;47.04;100386.09;10312133;28;20905;-73
2021/04/21 00:12:46;;;;;;;15.90;9.40;;;;;;;8.84;49.89;100372.31;10311648;28;20238;-73
2021/04/21 00:17:53;;;;;;;12.90;8.18;;;;;;;8.84;48.35;100378.50;10308278;28;20919;-73
2021/04/21 00:22:58;;;;;;;13.93;9.68;;;;;;;8.59;49.84;100368.75;10311802;28;20715;-73
2021/04/21 00:28:04;;;;;;;12.23;9.50;;;;;;;8.46;50.82;100365.25;10311722;28;20235;-73
2021/04/21 00:33:08;;;;;;;15.63;11.00;;;;;;;8.10;52.47;100369.56;10282639;28;21425;-74
2021/04/21 00:38:15;;;;;;;15.50;9.90;;;;;;;7.99;53.37;100373.97;10268509;28;20247;-73
2021/04/21 00:43:24;;;;;;;17.30;11.18;;;;;;;7.87;53.44;100376.56;10215744;28;20254;-73
2021/04/21 00:48:38;;;;;;;13.00;9.52;;;;;;;8.10;53.17;100366.06;10162746;28;20243;-75
2021/04/21 00:53:44;;;;;;;15.43;9.45;;;;;;;8.35;52.27;100371.34;10171556;28;20638;-74
2021/04/21 00:58:59;;;;;;;15.20;10.00;;;;;;;8.42;52.18;100368.22;10169759;28;20380;-74
2021/04/21 01:04:04;;;;;;;16.42;9.80;;;;;;;8.35;51.98;100360.66;10169669;28;20246;-73
2021/04/21 01:09:11;;;;;;;13.63;8.95;;;;;;;8.25;51.99;100358.72;10168054;28;20320;-73
2021/04/21 01:14:15;;;;;;;15.98;9.13;;;;;;;8.16;52.90;100354.91;10151718;28;20265;-74
2021/04/21 01:19:23;;;;;;;13.50;9.13;;;;;;;8.02;53.28;100353.22;10152382;28;20247;-74
2021/04/21 01:24:35;;;;;;;11.23;7.97;;;;;;;8.07;53.42;100351.06;10155077;28;20244;-74
2021/04/21 01:29:40;;;;;;;15.65;8.68;;;;;;;8.05;53.43;100355.66;10154936;28;20620;-73
2021/04/21 01:34:44;;;;;;;15.02;8.73;;;;;;;7.80;54.08;100353.88;10155194;28;20740;-73
2021/04/21 01:39:52;;;;;;;12.85;8.43;;;;;;;7.93;53.65;100349.38;10150539;28;20232;-74
2021/04/21 01:44:56;;;;;;;13.55;8.90;;;;;;;7.72;54.10;100350.88;10152836;28;20246;-75
2021/04/21 01:50:01;;;;;;;13.13;8.77;;;;;;;7.61;54.50;100350.75;10154273;28;20236;-73
2021/04/21 01:55:08;;;;;;;13.40;9.23;;;;;;;7.47;54.86;100349.03;10151866;28;21538;-73
2021/04/21 02:00:14;;;;;;;14.52;9.68;;;;;;;7.55;54.62;100345.84;10152475;28;20262;-73
2021/04/21 02:05:29;;;;;;;13.13;9.05;;;;;;;7.50;54.53;100352.34;10153808;28;20255;-73
2021/04/21 02:10:42;;;;;;;14.50;9.52;;;;;;;7.48;54.68;100350.75;10156111;28;20256;-73
2021/04/21 02:16:09;;;;;;;12.82;9.15;;;;;;;7.35;54.97;100350.75;10177328;28;20319;-75
2021/04/21 02:21:19;;;;;;;14.40;8.88;;;;;;;7.13;55.60;100355.81;10194833;28;20250;-72
2021/04/21 02:26:30;;;;;;;13.85;10.05;;;;;;;7.29;55.96;100345.78;10193741;28;20234;-74
2021/04/21 02:31:44;;;;;;;14.73;9.85;;;;;;;7.22;55.10;100349.88;10202134;28;20746;-73
2021/04/21 02:36:53;;;;;;;16.67;9.60;;;;;;;7.14;56.33;100346.84;10195413;28;20250;-73
2021/04/21 02:42:02;;;;;;;17.05;10.82;;;;;;;7.26;56.23;100343.34;10161499;28;20744;-73
2021/04/21 02:47:10;;;;;;;17.10;10.18;;;;;;;6.96;56.82;100349.78;10107586;28;20240;-74
2021/04/21 02:52:20;;;;;;;15.77;10.15;;;;;;;6.75;57.18;100368.06;10112897;28;20729;-73
2021/04/21 02:57:28;;;;;;;17.77;10.40;;;;;;;6.74;57.83;100362.81;10111313;28;20248;-75
2021/04/21 03:02:34;;;;;;;19.58;11.25;;;;;;;6.84;57.51;100358.56;10109732;28;20249;-73
2021/04/21 03:07:44;;;;;;;15.20;11.10;;;;;;;6.61;57.78;100352.09;10108937;28;20721;-74
2021/04/21 03:12:54;;;;;;;18.80;10.90;;;;;;;6.54;58.17;100354.28;10109177;28;20261;-73
2021/04/21 03:17:59;;;;;;;15.30;10.93;;;;;;;6.48;58.50;100349.34;10181353;28;20261;-73
2021/04/21 03:23:04;;;;;;;16.20;10.90;;;;;;;6.34;58.44;100346.72;10184874;28;20254;-74
2021/04/21 03:28:10;;;;;;;17.55;11.10;;;;;;;6.21;58.82;100359.09;10185355;28;20735;-73
2021/04/21 03:33:17;;;;;;;16.70;10.63;;;;;;;6.29;59.37;100349.66;10184568;28;20239;-73
2021/04/21 03:38:21;;;;;;;19.10;11.45;;;;;;;6.52;58.45;100356.19;10186553;28;20270;-73
2021/04/21 03:43:24;;;;;;;17.38;10.68;;;;;;;6.35;58.68;100341.25;10188392;28;20243;-74
2021/04/21 03:48:27;;;;;;;18.80;11.40;;;;;;;6.28;58.53;100353.28;10185059;28;20629;-75
2021/04/21 03:53:33;;;;;;;21.73;11.95;;;;;;;6.17;59.07;100347.75;10185559;28;20227;-75
2021/04/21 03:58:38;;;;;;;20.70;11.18;;;;;;;6.10;59.55;100351.78;10190690;28;20724;-75
2021/04/21 04:03:46;;;;;;;16.90;11.60;;;;;;;5.76;60.61;100361.00;10194421;28;20904;-75
2021/04/21 04:08:50;;;;;;;20.45;12.70;;;;;;;5.64;61.07;100351.97;10192141;28;20239;-75
2021/04/21 04:13:56;;;;;;;22.33;12.60;;;;;;;5.58;61.69;100353.19;10192802;28;20245;-75
2021/04/21 04:19:00;;;;;;;21.75;11.80;;;;;;;5.68;61.45;100350.84;10189194;28;20254;-75
2021/04/21 04:24:08;;;;;;;19.90;12.63;;;;;;;5.55;61.66;100358.72;10192512;28;20235;-76
2021/04/21 04:29:10;;;;;;;19.40;11.55;;;;;;;5.71;61.81;100366.63;10185172;28;20257;-76
2021/04/21 04:34:17;;;;;;;20.50;12.70;;;;;;;5.53;61.41;100367.75;10184321;28;20252;-75
2021/04/21 04:39:19;;;;;;;16.60;12.25;;;;;;;5.50;62.06;100368.78;10181478;28;20666;-75
2021/04/21 04:44:22;;;;;;;21.30;12.27;;;;;;;5.81;61.32;100364.25;10181001;28;20258;-74
2021/04/21 04:49:29;;;;;;;18.55;12.30;;;;;;;6.03;61.11;100375.28;10182429;28;20613;-75
2021/04/21 04:54:33;;;;;;;21.52;12.40;;;;;;;5.95;60.25;100375.78;10183125;28;20598;-75
2021/04/21 04:59:36;;;;;;;19.83;11.50;;;;;;;5.81;60.58;100369.59;10184027;28;20249;-75
2021/04/21 05:04:51;;;;;;;18.00;11.57;;;;;;;5.89;60.65;100378.81;10180965;28;20274;-75
2021/04/21 05:09:57;;;;;;;20.38;11.95;;;;;;;5.90;60.49;100390.38;10182560;28;20744;-76
2021/04/21 05:15:00;;;;;;;18.35;11.82;;;;;;;6.01;60.58;100390.56;10168537;28;21265;-75
2021/04/21 05:20:34;;;;;;;17.98;11.57;;;;;;;5.94;60.71;100386.53;10144714;28;20247;-75
2021/04/21 05:26:33;;;;;;;19.23;12.27;;;;;;;6.06;61.30;100395.59;10143770;28;20247;-75
2021/04/21 05:32:17;;;;;;;23.92;13.88;;;;;;;6.26;61.14;100389.03;10017070;29;20254;-76
2021/04/21 05:38:10;;;;;;;20.13;12.73;;;;;;;6.35;60.98;100401.78;10125867;28;20293;-75
2021/04/21 05:44:11;;;;;;;20.60;13.65;;;;;;;6.63;60.65;100403.53;10141173;28;20242;-74
2021/04/21 05:49:52;;;;;;;22.77;13.43;;;;;;;6.79;60.26;100406.06;10144436;28;21474;-74
2021/04/21 05:55:41;;;;;;;22.48;14.40;;;;;;;7.00;60.14;100395.84;10142074;28;20251;-75
2021/04/21 06:01:16;;;;;;;24.80;15.82;;;;;;;7.36;59.26;100397.88;10109263;28;20240;-75
2021/04/21 06:06:19;;;;;;;22.77;13.82;;;;;;;7.66;58.58;100402.94;10138590;28;20378;-76
2021/04/21 06:11:23;;;;;;;23.02;14.43;;;;;;;7.94;58.31;100401.88;10135551;28;20246;-75
2021/04/21 06:16:27;;;;;;;23.15;14.40;;;;;;;8.11;58.43;100407.88;10159749;28;20238;-75
2021/04/21 06:21:33;;;;;;;23.67;14.25;;;;;;;8.34;57.45;100417.81;10162458;28;20236;-75
2021/04/21 06:26:35;;;;;;;20.63;13.77;;;;;;;8.59;57.18;100419.63;10138824;28;20743;-76
2021/04/21 06:31:39;;;;;;;23.52;14.60;;;;;;;8.90;56.09;100417.38;10137049;28;20630;-77
2021/04/21 06:36:44;;;;;;;20.13;14.55;;;;;;;9.18;55.71;100416.19;10145177;28;20694;-76
2021/04/21 06:41:46;;;;;;;20.08;13.57;;;;;;;9.46;55.19;100415.00;10166772;28;20243;-75
2021/04/21 06:46:52;;;;;;;21.35;13.63;;;;;;;9.70;54.65;100414.91;10165613;28;20235;-75
2021/04/21 06:51:55;;;;;;;21.48;13.65;;;;;;;9.93;54.60;100415.88;10143513;28;20263;-76
2021/04/21 06:56:57;;;;;;;14.02;9.27;;;;;;;10.14;54.67;100404.41;10161036;28;20239;-76
2021/04/21 07:01:59;;;;;;;17.15;10.80;;;;;;;10.80;52.75;100409.84;10145943;28;20292;-76
2021/04/21 07:07:03;;;;;;;18.83;12.68;;;;;;;11.27;52.99;100411.38;10145400;28;20244;-74
2021/04/21 07:12:06;;;;;;;20.83;13.73;;;;;;;11.12;52.63;100414.44;10147080;28;20247;-76
2021/04/21 07:17:09;;;;;;;17.08;11.65;;;;;;;11.16;52.46;100413.22;10172645;28;21424;-76
2021/04/21 07:22:15;;;;;;;18.65;11.32;;;;;;;11.51;50.51;100421.03;10179187;28;20254;-76
2021/04/21 07:27:19;;;;;;;16.65;10.50;;;;;;;11.99;47.60;100412.44;10139786;28;20748;-76
2021/04/21 07:32:23;;;;;;;15.27;9.02;;;;;;;11.45;45.82;100419.69;10130546;28;20250;-76
2021/04/21 07:37:37;;;;;;;15.63;9.43;;;;;;;11.84;46.03;100422.66;10127165;28;20248;-74
2021/04/21 07:42:39;;;;;;;14.90;8.07;;;;;;;11.98;43.63;100421.47;10103969;28;20247;-76
2021/04/21 07:47:41;;;;;;;11.65;7.50;;;;;;;12.15;41.41;100426.28;10104899;28;20755;-77
2021/04/21 07:52:44;;;;;;;12.88;7.90;;;;;;;12.65;42.55;100427.38;10105670;28;20230;-76
2021/04/21 07:57:58;;;;;;;14.65;7.97;;;;;;;12.79;42.54;100427.00;10099568;28;21422;-76
2021/04/21 08:03:00;;;;;;;13.55;7.43;;;;;;;13.19;41.21;100432.31;10105070;28;20252;-76
2021/04/21 08:08:04;;;;;;;14.43;8.43;;;;;;;14.04;40.89;100427.16;10104608;28;20320;-75
2021/04/21 08:13:08;;;;;;;11.80;8.18;;;;;;;14.25;41.20;100427.81;10128900;28;20246;-76
2021/04/21 08:18:12;;;;;;;14.45;8.50;;;;;;;14.76;39.24;100429.22;10125220;28;20327;-76
2021/04/21 08:23:18;;;;;;;15.50;9.95;;;;;;;14.98;39.55;100427.94;10102768;28;20251;-77
2021/04/21 08:28:21;;;;;;;13.15;8.75;;;;;;;15.38;38.22;100425.84;10107199;28;20306;-77
2021/04/21 08:33:24;;;;;;;15.02;8.65;;;;;;;14.76;39.07;100431.91;10113951;28;20749;-77
2021/04/21 08:38:28;;;;;;;11.43;7.68;;;;;;;15.29;38.41;100424.88;10117677;28;20258;-77
2021/04/21 08:43:31;;;;;;;11.68;7.68;;;;;;;15.99;38.57;100427.72;10118732;28;20253;-77
2021/04/21 08:48:34;;;;;;;15.60;7.50;;;;;;;16.78;36.29;100431.19;10116706;28;20240;-77
2021/04/21 08:53:39;;;;;;;11.52;7.32;;;;;;;17.61;35.00;100435.84;10136942;28;20237;-77
2021/04/21 08:58:42;;;;;;;11.15;7.25;;;;;;;17.81;33.48;100429.03;10153500;28;20320;-77
2021/04/21 09:03:48;;;;;;;9.77;6.90;;;;;;;18.17;31.60;100431.41;10152392;28;20256;-77
2021/04/21 09:08:52;;;;;;;11.38;7.07;;;;;;;18.49;32.30;100441.34;10164227;28;20727;-76
2021/04/21 09:13:54;;;;;;;14.30;7.53;;;;;;;18.22;31.71;100431.72;10161817;28;20235;-77
2021/04/21 09:18:57;;;;;;;9.73;5.78;;;;;;;18.86;31.43;100439.03;10194150;28;20790;-76
2021/04/21 09:24:00;;;;;;;10.40;5.38;;;;;;;19.36;28.68;100435.84;10193870;28;20234;-76
2021/04/21 09:29:02;;;;;;;8.52;5.60;;;;;;;18.70;28.70;100439.91;10189749;28;20231;-76
2021/04/21 09:34:11;;;;;;;7.47;4.68;;;;;;;19.15;27.57;100443.81;10193570;28;20628;-76
2021/04/21 09:39:17;;;;;;;7.18;4.75;;;;;;;19.46;26.61;100435.59;10173704;28;21868;-77
2021/04/21 09:44:24;;;;;;;7.63;5.05;;;;;;;19.54;26.91;100438.28;10115114;28;20244;-75
2021/04/21 09:49:31;;;;;;;9.27;5.80;;;;;;;20.48;26.73;100430.59;10112218;28;20253;-76
2021/04/21 09:54:36;;;;;;;9.20;5.28;;;;;;;20.28;28.10;100432.19;10115003;28;20247;-76
2021/04/21 09:59:55;;;;;;;12.60;5.82;;;;;;;20.96;27.25;100435.66;10114674;28;20257;-76
2021/04/21 10:04:57;;;;;;;7.32;5.32;;;;;;;20.88;27.72;100431.16;10115302;28;20393;-76
2021/04/21 10:10:01;;;;;;;7.85;6.55;;;;;;;20.14;27.90;100431.13;10117741;28;20244;-76
2021/04/21 10:15:08;;;;;;;7.78;5.72;;;;;;;20.78;27.60;100434.16;10180929;28;20308;-75
2021/04/21 10:20:13;;;;;;;7.97;5.70;;;;;;;21.92;26.19;100429.97;10194873;28;20250;-76
2021/04/21 10:25:17;;;;;;;7.43;5.40;;;;;;;22.46;25.03;100426.56;10199242;28;20261;-76
2021/04/21 10:30:20;;;;;;;13.05;5.30;;;;;;;22.36;24.94;100426.91;10199715;28;20355;-75
2021/04/21 10:35:22;;;;;;;8.45;5.50;;;;;;;21.53;24.87;100432.13;10198989;28;20242;-75
2021/04/21 10:40:28;;;;;;;8.35;5.40;;;;;;;21.63;25.70;100429.03;10200436;28;20273;-76
2021/04/21 10:45:31;;;;;;;6.68;4.65;;;;;;;23.05;24.32;100433.41;10199534;28;20346;-75
2021/04/21 10:50:36;;;;;;;11.15;5.90;;;;;;;24.10;24.09;100427.25;10199379;28;20242;-76
2021/04/21 10:55:40;;;;;;;9.90;5.95;;;;;;;22.90;23.44;100430.78;10201851;28;20254;-76
2021/04/21 11:00:47;;;;;;;6.93;4.88;;;;;;;21.87;25.25;100438.75;10201255;28;20241;-75
2021/04/21 11:05:59;;;;;;;8.45;5.05;;;;;;;21.10;25.06;100437.53;10199227;28;20607;-75
2021/04/21 11:11:04;;;;;;;9.32;5.65;;;;;;;22.06;25.04;100423.56;10205175;28;20240;-75
2021/04/21 11:16:27;;;;;;;8.18;5.88;;;;;;;22.25;24.38;100427.50;10186518;28;20223;-75
2021/04/21 11:21:31;;;;;;;11.20;5.63;;;;;;;20.28;25.18;100418.53;10164016;28;20242;-75
2021/04/21 11:26:36;;;;;;;9.20;6.00;;;;;;;21.87;24.29;100411.41;10163163;28;20240;-74
2021/04/21 11:32:21;;;;;;;7.85;5.70;;;;;;;23.79;23.24;100414.19;10169764;28;20242;-75
2021/04/21 11:37:43;;;;;;;9.25;6.45;;;;;;;24.86;21.78;100411.25;10155961;28;20377;-75
2021/04/21 11:42:46;;;;;;;6.70;5.32;;;;;;;25.24;21.12;100421.47;10158503;28;20704;-76
2021/04/21 11:47:50;;;;;;;9.15;6.40;;;;;;;25.88;21.76;100417.63;10158778;28;21520;-77
2021/04/21 11:53:01;;;;;;;10.95;6.30;;;;;;;25.24;21.71;100414.06;10158519;28;20633;-76
2021/04/21 11:58:07;;;;;;;8.48;6.13;;;;;;;25.84;20.23;100414.50;10161160;28;20284;-75
2021/04/21 12:03:15;;;;;;;9.23;6.47;;;;;;;23.18;24.01;100408.81;10161412;28;20739;-76
2021/04/21 12:08:19;;;;;;;7.68;6.07;;;;;;;24.59;22.40;100399.53;10211231;28;20243;-76
2021/04/21 12:13:27;;;;;;;9.90;6.65;;;;;;;24.49;22.47;100406.31;10279750;28;20235;-75
2021/04/21 12:18:35;;;;;;;7.13;5.25;;;;;;;25.61;20.74;100401.28;10272696;28;20236;-75
2021/04/21 12:23:37;;;;;;;9.02;5.85;;;;;;;24.35;22.13;100403.78;10264556;28;20922;-75
2021/04/21 12:28:48;;;;;;;10.40;5.57;;;;;;;22.31;23.57;100399.31;10260027;28;20747;-75
2021/04/21 12:33:51;;;;;;;8.23;5.53;;;;;;;21.71;25.18;100401.56;10299550;28;20238;-76
2021/04/21 12:39:01;;;;;;;7.72;5.00;;;;;;;21.26;24.22;100402.84;10307674;28;20318;-74
2021/04/21 12:44:18;;;;;;;12.15;5.78;;;;;;;21.89;24.32;100398.41;10307767;28;20245;-75
2021/04/21 12:49:32;;;;;;;8.27;5.65;;;;;;;22.68;23.33;100397.22;10268557;28;20246;-77
2021/04/21 12:54:36;;;;;;;10.63;5.72;;;;;;;22.18;24.55;100404.69;10275446;28;20812;-75
2021/04/21 12:59:44;;;;;;;10.73;5.90;;;;;;;21.08;25.59;100395.06;10232095;28;20241;-76
2021/04/21 13:04:47;;;;;;;9.02;6.57;;;;;;;20.59;26.62;100388.34;10232695;28;20247;-73
2021/04/21 13:09:50;;;;;;;10.10;6.28;;;;;;;20.13;27.16;100397.56;10247283;28;20302;-73
2021/04/21 13:14:53;;;;;;;9.15;5.95;;;;;;;20.22;27.10;100392.03;10274557;28;20242;-74
2021/04/21 13:19:56;;;;;;;9.70;6.78;;;;;;;20.64;26.28;100388.63;10231017;28;20236;-72
2021/04/21 13:25:10;;;;;;;14.10;8.93;;;;;;;20.27;28.44;100382.25;10229426;28;20237;-73
2021/04/21 13:30:18;;;;;;;16.50;10.77;;;;;;;20.20;30.32;100388.63;10226590;28;20244;-73
2021/04/21 13:35:21;;;;;;;19.73;12.88;;;;;;;19.43;31.61;100395.13;10227938;28;20236;-74
2021/04/21 13:40:23;;;;;;;19.08;12.68;;;;;;;20.00;31.32;100396.53;10227592;28;20709;-74
2021/04/21 13:45:26;;;;;;;23.38;13.27;;;;;;;21.28;30.22;100387.91;10257578;28;20240;-74
2021/04/21 13:50:28;;;;;;;30.02;13.90;;;;;;;22.38;28.25;100394.75;10267702;28;20239;-73
2021/04/21 13:55:30;;;;;;;18.17;11.43;;;;;;;23.04;26.83;100383.25;10267406;28;20228;-74
2021/04/21 14:00:33;;;;;;;17.92;11.23;;;;;;;23.03;28.43;100394.41;10268142;28;20239;-75
2021/04/21 14:05:35;;;;;;;16.02;9.88;;;;;;;23.60;26.77;100390.31;10266968;28;20918;-74
2021/04/21 14:10:38;;;;;;;22.13;13.27;;;;;;;23.01;29.59;100402.84;10267826;28;20270;-74
2021/04/21 14:15:41;;;;;;;25.80;15.43;;;;;;;22.01;31.55;100412.38;10301387;28;20239;-74
2021/04/21 14:20:43;;;;;;;26.45;15.20;;;;;;;21.79;32.39;100411.56;10313178;28;21427;-72
2021/04/21 14:25:45;;;;;;;23.88;14.98;;;;;;;21.07;33.47;100420.69;10305274;28;20231;-74
2021/04/21 14:30:49;;;;;;;25.15;15.27;;;;;;;21.32;33.81;100413.00;10305901;28;20722;-74
2021/04/21 14:35:51;;;;;;;24.13;14.85;;;;;;;21.87;33.55;100423.19;10309836;28;20238;-74
2021/04/21 14:40:53;;;;;;;20.40;14.18;;;;;;;22.39;32.22;100425.69;10306791;28;20700;-74
2021/04/21 14:45:57;;;;;;;19.30;12.88;;;;;;;21.85;33.30;100421.69;10314540;28;20245;-74
2021/04/21 14:50:59;;;;;;;17.65;11.82;;;;;;;22.41;32.70;100437.28;10311673;28;20235;-75
2021/04/21 14:56:01;;;;;;;16.55;11.57;;;;;;;23.28;31.24;100449.50;10296135;28;20228;-77
2021/04/21 15:01:05;;;;;;;17.55;11.55;;;;;;;20.90;34.19;100447.31;10273168;28;20231;-74
2021/04/21 15:06:07;;;;;;;21.38;10.85;;;;;;;19.10;36.90;100457.13;10272191;28;20228;-73
2021/04/21 15:11:17;;;;;;;15.75;10.65;;;;;;;18.24;38.28;100458.72;10270710;28;20240;-74
2021/04/21 15:16:23;;;;;;;17.52;10.85;;;;;;;18.63;38.50;100469.69;10279260;28;20613;-74
2021/04/21 15:21:27;;;;;;;16.65;10.98;;;;;;;20.44;34.90;100463.94;10270470;28;20477;-74
2021/04/21 15:26:31;;;;;;;12.30;8.52;;;;;;;20.64;33.06;100472.41;10273002;28;20244;-73
2021/04/21 15:31:38;;;;;;;13.85;8.18;;;;;;;20.60;33.05;100460.16;10271612;28;20244;-73
2021/04/21 15:36:42;;;;;;;14.80;8.00;;;;;;;19.33;34.98;100459.84;10286842;28;20354;-74
2021/04/21 15:41:45;;;;;;;11.38;6.53;;;;;;;19.86;34.12;100467.16;10271960;28;20242;-74
2021/04/21 15:46:48;;;;;;;9.27;6.03;;;;;;;20.21;32.68;100466.66;10272543;28;20395;-74
2021/04/21 15:51:57;;;;;;;8.57;5.93;;;;;;;20.03;32.94;100464.31;10284634;28;20231;-75
2021/04/21 15:57:01;;;;;;;10.30;5.15;;;;;;;19.17;33.41;100471.69;10270780;28;20338;-75
2021/04/21 16:02:05;;;;;;;13.50;5.28;;;;;;;19.56;32.93;100479.84;10240023;28;22625;-74
2021/04/21 16:07:07;;;;;;;8.07;4.97;;;;;;;19.07;32.53;100487.41;10155954;28;20236;-74
2021/04/21 16:12:10;;;;;;;7.45;4.70;;;;;;;18.31;34.62;100495.09;10147440;28;20732;-75
2021/04/21 16:17:13;;;;;;;8.18;4.40;;;;;;;17.01;37.13;100496.59;10180716;28;20239;-74
2021/04/21 16:22:15;;;;;;;11.25;3.90;;;;;;;16.12;37.93;100505.84;10184814;28;21388;-74
2021/04/21 16:27:17;;;;;;;9.90;4.30;;;;;;;15.64;39.34;100521.53;10185769;28;20235;-74
2021/04/21 16:32:20;;;;;;;11.30;4.55;;;;;;;15.63;38.80;100524.38;10189227;28;20944;-73
2021/04/21 16:37:22;;;;;;;10.15;4.55;;;;;;;15.25;39.83;100543.41;10191703;28;20793;-73
2021/04/21 16:42:24;;;;;;;8.15;4.50;;;;;;;14.49;40.07;100527.34;10165680;28;20767;-73
2021/04/21 16:47:27;;;;;;;11.02;4.18;;;;;;;14.70;40.06;100543.38;10176035;28;20243;-73
2021/04/21 16:52:29;;;;;;;9.10;4.10;;;;;;;15.72;38.29;100534.31;10166353;28;20612;-74
2021/04/21 16:57:33;;;;;;;9.00;4.05;;;;;;;16.66;35.66;100538.28;10147911;28;20604;-74
2021/04/21 17:02:36;;;;;;;8.82;4.10;;;;;;;15.29;37.57;100554.78;10130090;28;20240;-75
2021/04/21 17:07:40;;;;;;;13.95;4.65;;;;;;;14.82;38.95;100558.41;10132633;28;20243;-74
2021/04/21 17:12:42;;;;;;;7.43;3.83;;;;;;;14.91;38.57;100556.66;10117275;28;20256;-75
2021/04/21 17:17:46;;;;;;;5.78;3.70;;;;;;;14.74;38.80;100561.00;10150823;28;20245;-74
2021/04/21 17:22:48;;;;;;;7.25;3.97;;;;;;;14.10;40.08;100564.38;10135682;28;20247;-73
2021/04/21 17:27:52;;;;;;;8.60;3.85;;;;;;;13.52;40.05;100569.69;10118935;28;21449;-72
2021/04/21 17:32:55;;;;;;;8.68;4.25;;;;;;;12.96;41.05;100566.50;10138890;28;20766;-74
2021/04/21 17:37:57;;;;;;;8.80;4.10;;;;;;;12.77;41.43;100575.34;10105514;28;20240;-73
2021/04/21 17:43:11;;;;;;;11.45;3.88;;;;;;;12.65;41.66;100575.59;10108447;28;20888;-74
2021/04/21 17:48:15;;;;;;;11.63;4.82;;;;;;;12.30;41.68;100595.63;10109696;28;20244;-77
2021/04/21 17:53:18;;;;;;;8.80;4.10;;;;;;;11.93;42.38;100588.81;10112566;28;20736;-76
2021/04/21 17:58:21;;;;;;;11.75;4.40;;;;;;;11.63;42.24;100604.81;10113465;28;20251;-75
2021/04/21 18:03:25;;;;;;;9.02;3.60;;;;;;;11.45;42.51;100605.31;10117397;28;20240;-76
2021/04/21 18:08:27;;;;;;;10.60;3.97;;;;;;;11.60;42.33;100608.59;10118781;28;20621;-76
2021/04/21 18:13:29;;;;;;;10.35;3.40;;;;;;;11.33;41.98;100626.97;10153823;28;20228;-76
2021/04/21 18:18:32;;;;;;;7.80;3.00;;;;;;;11.08;40.73;100636.97;10189065;28;20228;-75
2021/04/21 18:23:34;;;;;;;8.98;2.78;;;;;;;10.69;40.01;100630.19;10163750;28;20324;-74
2021/04/21 18:28:36;;;;;;;10.02;3.10;;;;;;;10.45;40.25;100651.72;10194726;28;20251;-76
2021/04/21 18:33:40;;;;;;;7.07;3.42;;;;;;;10.29;40.56;100658.28;10180274;28;20234;-76
2021/04/21 18:38:42;;;;;;;5.60;2.15;;;;;;;10.17;41.24;100665.44;10190431;28;20247;-75
2021/04/21 18:43:44;;;;;;;5.47;2.22;;;;;;;9.83;41.38;100674.22;10199957;28;20238;-75
2021/04/21 18:48:47;;;;;;;3.60;2.00;;;;;;;9.68;41.56;100682.44;10195281;28;20241;-75
2021/04/21 18:53:49;;;;;;;7.63;2.08;;;;;;;9.49;41.70;100695.47;10193315;28;20239;-75
2021/04/21 18:58:51;;;;;;;3.50;2.03;;;;;;;9.49;42.46;100709.72;10197473;28;20248;-77
2021/04/21 19:03:54;;;;;;;3.42;1.90;;;;;;;9.32;42.18;100710.03;10180401;28;20800;-76
2021/04/21 19:08:56;;;;;;;3.28;1.65;;;;;;;9.23;43.01;100721.41;10179080;28;20655;-76
2021/04/21 19:13:59;;;;;;;4.75;1.45;;;;;;;9.05;42.85;100734.28;10185091;28;20290;-75
2021/04/21 19:19:02;;;;;;;6.05;1.95;;;;;;;8.82;43.19;100742.06;10163387;28;20245;-76
2021/04/21 19:24:07;;;;;;;5.03;2.10;;;;;;;8.67;43.22;100743.13;10188383;28;20755;-75
2021/04/21 19:29:12;;;;;;;47.67;23.75;;;;;;;8.48;43.74;100754.22;10172013;28;20242;-75
2021/04/21 19:34:15;;;;;;;5.82;2.10;;;;;;;8.43;44.16;100764.31;10173241;28;20243;-75
2021/04/21 19:39:20;;;;;;;4.68;1.85;;;;;;;8.39;44.14;100769.03;10174871;28;20240;-74
2021/04/21 19:44:22;;;;;;;8.23;1.83;;;;;;;8.23;44.54;100773.66;10164769;28;20248;-74
2021/04/21 19:49:25;;;;;;;8.57;2.50;;;;;;;8.09;44.98;100779.03;10160847;28;20268;-75
2021/04/21 19:54:27;;;;;;;4.55;1.90;;;;;;;7.98;45.28;100787.78;10154594;28;20235;-75
2021/04/21 19:59:29;;;;;;;6.20;2.30;;;;;;;7.92;45.44;100791.66;10151588;28;20236;-75
2021/04/21 20:04:33;;;;;;;7.22;2.00;;;;;;;7.84;45.65;100793.13;10152825;28;20259;-74
2021/04/21 20:09:35;;;;;;;9.90;2.15;;;;;;;7.74;45.82;100803.56;10171699;28;20245;-76
2021/04/21 20:14:38;;;;;;;8.73;2.38;;;;;;;7.75;45.13;100805.25;10162095;28;20249;-76
2021/04/21 20:19:41;;;;;;;7.25;2.50;;;;;;;7.55;45.37;100806.50;10192315;28;20909;-75
2021/04/21 20:24:43;;;;;;;10.43;2.78;;;;;;;7.43;44.92;100808.13;10195096;28;20238;-76
2021/04/21 20:29:45;;;;;;;10.15;2.45;;;;;;;7.36;44.99;100812.13;10190399;28;20598;-75
2021/04/21 20:34:49;;;;;;;9.80;2.33;;;;;;;7.28;45.21;100822.41;10191495;28;20243;-76
2021/04/21 20:39:51;;;;;;;7.65;2.38;;;;;;;7.21;45.32;100821.94;10187729;28;20705;-73
2021/04/21 20:44:53;;;;;;;7.45;2.45;;;;;;;7.20;44.81;100838.03;10188327;28;20258;-76
2021/04/21 20:49:56;;;;;;;6.78;2.38;;;;;;;7.16;44.71;100839.16;10188778;28;20301;-75
2021/04/21 20:54:58;;;;;;;7.18;2.50;;;;;;;7.13;44.97;100844.69;10188296;28;20253;-75
2021/04/21 21:00:00;;;;;;;6.90;2.22;;;;;;;6.93;44.41;100857.41;10188544;28;20752;-76
2021/04/21 21:05:04;;;;;;;7.85;2.55;;;;;;;6.90;45.38;100848.72;10183714;28;20244;-76
2021/04/21 21:10:07;;;;;;;9.38;2.75;;;;;;;6.88;45.15;100846.13;10183602;28;20235;-75
2021/04/21 21:15:11;;;;;;;9.60;2.80;;;;;;;6.85;44.91;100851.63;10188218;28;20672;-75
2021/04/21 21:20:16;;;;;;;9.70;3.03;;;;;;;6.75;45.87;100853.97;10169246;28;20246;-75
2021/04/21 21:25:18;;;;;;;7.35;2.58;;;;;;;6.76;45.54;100860.19;10178234;28;20363;-75
2021/04/21 21:30:23;;;;;;;9.35;3.10;;;;;;;6.67;46.17;100864.25;10188570;28;20242;-75
2021/04/21 21:35:26;;;;;;;4.78;2.33;;;;;;;6.38;46.70;100860.53;10188165;28;20235;-75
2021/04/21 21:40:48;;;;;;;9.75;2.78;;;;;;;6.21;47.12;100865.97;10188961;28;20808;-75
2021/04/21 21:45:50;;;;;;;12.77;2.70;;;;;;;5.99;47.34;100863.59;10189759;28;20301;-74
2021/04/21 21:50:53;;;;;;;7.28;2.38;;;;;;;5.87;48.36;100862.44;10193592;28;20243;-74
2021/04/21 21:55:55;;;;;;;7.28;2.25;;;;;;;5.73;48.19;100876.50;10182898;28;20235;-74
2021/04/21 22:00:59;;;;;;;9.48;2.90;;;;;;;5.61;48.92;100879.84;10184869;28;20254;-73
2021/04/21 22:06:02;;;;;;;5.43;2.93;;;;;;;5.63;49.25;100877.97;10173136;28;20247;-73
2021/04/21 22:11:04;;;;;;;9.80;2.83;;;;;;;5.65;48.94;100895.59;10188607;28;20475;-74
2021/04/21 22:16:07;;;;;;;8.15;3.25;;;;;;;5.61;49.31;100893.16;10212028;28;20246;-74
2021/04/21 22:21:10;;;;;;;11.82;3.17;;;;;;;5.45;49.50;100890.41;10211243;28;20250;-74
2021/04/21 22:26:12;;;;;;;14.40;3.40;;;;;;;5.50;49.75;100905.22;10230945;28;20234;-74
2021/04/21 22:31:14;;;;;;;8.63;2.80;;;;;;;5.35;49.65;100911.38;10225829;28;20238;-75
2021/04/21 22:36:17;;;;;;;5.43;2.80;;;;;;;5.17;50.09;100913.13;10206859;28;20317;-74
2021/04/21 22:41:19;;;;;;;11.85;2.80;;;;;;;5.21;50.72;100916.50;10225010;28;20241;-74
2021/04/21 22:46:21;;;;;;;10.38;2.97;;;;;;;5.22;50.00;100923.56;10223975;28;20281;-74
2021/04/21 22:51:24;;;;;;;7.68;2.47;;;;;;;4.95;51.33;100926.63;10225584;28;20245;-74
2021/04/21 22:56:26;;;;;;;9.45;2.90;;;;;;;4.83;51.63;100937.88;10226752;28;20238;-74
2021/04/21 23:01:28;;;;;;;6.72;2.60;;;;;;;4.95;51.68;100939.94;10224176;28;20734;-74
2021/04/21 23:06:31;;;;;;;8.07;3.00;;;;;;;4.79;51.82;100945.13;10228746;28;21390;-73
2021/04/21 23:11:33;;;;;;;7.88;3.00;;;;;;;4.54;52.70;100937.47;10227812;28;20624;-75
2021/04/21 23:16:35;;;;;;;9.55;3.15;;;;;;;4.58;52.56;100946.16;10200585;28;20736;-74
2021/04/21 23:21:38;;;;;;;15.57;3.13;;;;;;;4.61;52.89;100936.25;10188527;28;20728;-74